createdAt,value
2018-10-07T00:00:50.570Z,27
2018-10-07T00:02:49.928Z,31
2018-10-07T00:04:50.546Z,49
2018-10-07T00:06:49.904Z,56
2018-10-07T00:08:50.087Z,27
2018-10-07T00:10:50.344Z,40
2018-10-07T00:12:50.583Z,37
2018-10-07T00:14:49.719Z,45
2018-10-07T00:16:49.969Z,38
2018-10-07T00:18:50.116Z,30
2018-10-07T00:20:50.326Z,45
2018-10-07T00:22:50.536Z,31
2018-10-07T00:24:49.823Z,31
2018-10-07T00:26:50.112Z,36
2018-10-07T00:28:50.297Z,32
2018-10-07T00:30:50.441Z,38
2018-10-07T00:32:50.594Z,44
2018-10-07T00:34:50.116Z,35
2018-10-07T00:36:50.437Z,28
2018-10-07T00:38:49.706Z,33
2018-10-07T00:40:49.855Z,35
2018-10-07T00:42:50.083Z,36
2018-10-07T00:44:50.303Z,41
2018-10-07T00:46:50.541Z,44
2018-10-07T00:48:49.707Z,40
2018-10-07T00:50:49.993Z,30
2018-10-07T00:52:50.199Z,33
2018-10-07T00:54:50.421Z,37
2018-10-07T00:56:49.741Z,38
2018-10-07T00:58:50.008Z,28
2018-10-07T01:00:50.184Z,33
2018-10-07T01:02:50.404Z,40
2018-10-07T01:04:49.932Z,35
2018-10-07T01:06:50.139Z,47
2018-10-07T01:08:50.314Z,29
2018-10-07T01:10:50.590Z,33
2018-10-07T01:12:49.750Z,36
2018-10-07T01:14:49.976Z,29
2018-10-07T01:16:50.213Z,43
2018-10-07T01:18:50.435Z,41
2018-10-07T01:20:49.834Z,36
2018-10-07T01:22:49.993Z,34
2018-10-07T01:24:50.188Z,42
2018-10-07T01:26:50.456Z,35
2018-10-07T01:28:49.735Z,34
2018-10-07T01:30:49.931Z,25
2018-10-07T01:32:50.102Z,40
2018-10-07T01:34:50.662Z,28
2018-10-07T01:36:50.009Z,33
2018-10-07T01:38:50.223Z,34
2018-10-07T01:40:50.473Z,36
2018-10-07T01:42:50.644Z,30
2018-10-07T01:44:49.799Z,27
2018-10-07T01:46:50.044Z,37
2018-10-07T01:48:50.243Z,41
2018-10-07T01:50:50.432Z,35
2018-10-07T01:52:50.574Z,30
2018-10-07T01:54:49.726Z,30
2018-10-07T01:56:50.126Z,39
2018-10-07T01:58:50.235Z,42
2018-10-07T02:00:50.425Z,38
2018-10-07T02:02:50.626Z,36
2018-10-07T02:04:50.171Z,38
2018-10-07T02:06:50.383Z,46
2018-10-07T02:08:50.416Z,30
2018-10-07T02:10:50.538Z,33
2018-10-07T02:12:49.708Z,33
2018-10-07T02:14:50.009Z,36
2018-10-07T02:16:50.342Z,32
2018-10-07T02:18:50.553Z,36
2018-10-07T02:20:50.688Z,31
2018-10-07T02:22:49.884Z,31
2018-10-07T02:24:50.111Z,29
2018-10-07T02:26:50.396Z,29
2018-10-07T02:28:50.509Z,29
2018-10-07T02:30:49.725Z,38
2018-10-07T02:32:49.917Z,40
2018-10-07T02:34:50.488Z,38
2018-10-07T02:36:49.838Z,32
2018-10-07T02:38:50.062Z,37
2018-10-07T02:40:50.229Z,33
2018-10-07T02:42:50.420Z,45
2018-10-07T02:44:50.683Z,30
2018-10-07T02:46:50.125Z,35
2018-10-07T02:48:50.287Z,32
2018-10-07T02:50:50.596Z,44
2018-10-07T02:52:49.801Z,32
2018-10-07T02:54:49.878Z,39
2018-10-07T02:56:50.188Z,45
2018-10-07T02:58:50.376Z,36
2018-10-07T03:00:50.573Z,26
2018-10-07T03:02:49.812Z,38
2018-10-07T03:04:50.951Z,30
2018-10-07T03:06:49.824Z,32
2018-10-07T03:08:50.045Z,39
2018-10-07T03:10:50.276Z,38
2018-10-07T03:12:50.540Z,24
2018-10-07T03:14:49.730Z,43
2018-10-07T03:16:50.124Z,44
2018-10-07T03:18:50.281Z,36
2018-10-07T03:20:50.439Z,39
2018-10-07T03:22:49.709Z,52
2018-10-07T03:24:49.885Z,35
2018-10-07T03:26:50.204Z,31
2018-10-07T03:28:50.378Z,31
2018-10-07T03:30:50.596Z,44
2018-10-07T03:32:49.788Z,44
2018-10-07T03:34:50.247Z,53
2018-10-07T03:36:50.489Z,40
2018-10-07T03:38:49.718Z,40
2018-10-07T03:40:49.985Z,35
2018-10-07T03:42:50.355Z,51
2018-10-07T03:44:50.525Z,43
2018-10-07T03:46:49.742Z,35
2018-10-07T03:48:49.973Z,40
2018-10-07T03:50:50.193Z,36
2018-10-07T03:52:50.435Z,32
2018-10-07T03:54:49.797Z,39
2018-10-07T03:56:50.139Z,39
2018-10-07T03:58:50.321Z,35
2018-10-07T04:00:50.533Z,34
2018-10-07T04:02:49.881Z,31
2018-10-07T04:04:50.474Z,29
2018-10-07T04:06:49.752Z,35
2018-10-07T04:08:49.973Z,44
2018-10-07T04:10:50.131Z,39
2018-10-07T04:12:50.354Z,47
2018-10-07T04:14:50.492Z,43
2018-10-07T04:16:49.872Z,35
2018-10-07T04:18:50.058Z,37
2018-10-07T04:20:50.259Z,30
2018-10-07T04:22:50.378Z,51
2018-10-07T04:24:50.563Z,51
2018-10-07T04:26:49.833Z,23
2018-10-07T04:28:50.027Z,32
2018-10-07T04:30:50.281Z,41
2018-10-07T04:32:50.483Z,35
2018-10-07T04:34:50.053Z,27
2018-10-07T04:36:50.290Z,45
2018-10-07T04:38:50.471Z,30
2018-10-07T04:40:49.718Z,35
2018-10-07T04:42:49.887Z,27
2018-10-07T04:44:50.122Z,47
2018-10-07T04:46:50.428Z,30
2018-10-07T04:48:49.716Z,39
2018-10-07T04:50:49.927Z,35
2018-10-07T04:52:50.115Z,45
2018-10-07T04:54:50.293Z,35
2018-10-07T04:56:50.697Z,35
2018-10-07T04:58:49.932Z,38
2018-10-07T05:00:50.071Z,44
2018-10-07T05:02:50.330Z,31
2018-10-07T05:04:49.966Z,39
2018-10-07T05:06:50.251Z,40
2018-10-07T05:08:50.397Z,37
2018-10-07T05:10:50.541Z,51
2018-10-07T05:12:49.742Z,41
2018-10-07T05:14:49.987Z,42
2018-10-07T05:16:50.297Z,42
2018-10-07T05:18:50.556Z,35
2018-10-07T05:20:50.055Z,35
2018-10-07T05:22:50.451Z,46
2018-10-07T05:24:50.747Z,49
2018-10-07T05:26:49.953Z,37
2018-10-07T05:28:50.143Z,28
2018-10-07T05:30:50.333Z,36
2018-10-07T05:32:50.591Z,43
2018-10-07T05:34:50.356Z,37
2018-10-07T05:36:50.169Z,42
2018-10-07T05:38:50.343Z,42
2018-10-07T05:40:50.569Z,35
2018-10-07T05:42:49.837Z,42
2018-10-07T05:44:50.532Z,31
2018-10-07T05:46:50.380Z,45
2018-10-07T05:48:50.571Z,39
2018-10-07T05:50:49.775Z,41
2018-10-07T05:52:50.054Z,45
2018-10-07T05:54:50.319Z,32
2018-10-07T05:56:50.493Z,40
2018-10-07T05:58:49.724Z,42
2018-10-07T06:00:50.008Z,51
2018-10-07T06:02:50.297Z,38
2018-10-07T06:04:49.821Z,34
2018-10-07T06:06:50.189Z,29
2018-10-07T06:08:50.366Z,36
2018-10-07T06:10:50.555Z,35
2018-10-07T06:12:49.730Z,34
2018-10-07T06:14:50.318Z,38
2018-10-07T06:16:50.101Z,53
2018-10-07T06:18:50.310Z,38
2018-10-07T06:20:50.548Z,45
2018-10-07T06:22:49.734Z,45
2018-10-07T06:24:49.965Z,35
2018-10-07T06:26:50.237Z,33
2018-10-07T06:28:50.429Z,36
2018-10-07T06:30:50.616Z,52
2018-10-07T06:32:50.024Z,32
2018-10-07T06:34:50.513Z,38
2018-10-07T06:36:49.865Z,41
2018-10-07T06:38:50.714Z,34
2018-10-07T06:40:50.316Z,39
2018-10-07T06:42:50.516Z,35
2018-10-07T06:44:49.740Z,45
2018-10-07T06:46:50.031Z,40
2018-10-07T06:48:50.262Z,30
2018-10-07T06:50:50.502Z,45
2018-10-07T06:52:49.711Z,43
2018-10-07T06:54:49.980Z,35
2018-10-07T06:56:50.288Z,31
2018-10-07T06:58:50.429Z,36
2018-10-07T07:00:49.733Z,43
2018-10-07T07:02:49.960Z,45
2018-10-07T07:04:50.587Z,33
2018-10-07T07:06:49.884Z,40
2018-10-07T07:08:50.123Z,25
2018-10-07T07:10:50.367Z,38
2018-10-07T07:12:50.803Z,39
2018-10-07T07:14:50.071Z,54
2018-10-07T07:16:50.384Z,45
2018-10-07T07:18:50.603Z,40
2018-10-07T07:20:49.860Z,40
2018-10-07T07:22:50.074Z,31
2018-10-07T07:24:50.291Z,31
2018-10-07T07:26:49.721Z,39
2018-10-07T07:28:49.952Z,61
2018-10-07T07:30:50.156Z,32
2018-10-07T07:32:50.368Z,43
2018-10-07T07:34:50.079Z,40
2018-10-07T07:36:50.674Z,48
2018-10-07T07:38:50.366Z,48
2018-10-07T07:40:50.566Z,38
2018-10-07T07:42:49.746Z,38
2018-10-07T07:44:50.016Z,40
2018-10-07T07:46:50.203Z,40
2018-10-07T07:48:50.518Z,31
2018-10-07T07:50:50.619Z,42
2018-10-07T07:52:49.835Z,38
2018-10-07T07:54:49.990Z,54
2018-10-07T07:56:50.307Z,35
2018-10-07T07:58:50.647Z,33
2018-10-07T08:00:49.803Z,28
2018-10-07T08:02:49.968Z,27
2018-10-07T08:04:50.543Z,39
2018-10-07T08:06:49.810Z,38
2018-10-07T08:08:50.409Z,47
2018-10-07T08:10:50.099Z,38
2018-10-07T08:12:50.260Z,36
2018-10-07T08:14:50.458Z,41
2018-10-07T08:16:49.751Z,43
2018-10-07T08:18:49.959Z,25
2018-10-07T08:20:50.156Z,47
2018-10-07T08:22:50.282Z,41
2018-10-07T08:24:50.411Z,49
2018-10-07T08:26:49.728Z,34
2018-10-07T08:28:49.914Z,43
2018-10-07T08:30:50.121Z,28
2018-10-07T08:32:50.301Z,39
2018-10-07T08:34:49.777Z,42
2018-10-07T08:36:49.932Z,42
2018-10-07T08:38:50.355Z,43
2018-10-07T08:40:50.641Z,37
2018-10-07T08:42:49.780Z,35
2018-10-07T08:44:49.956Z,50
2018-10-07T08:46:50.362Z,27
2018-10-07T08:48:50.485Z,42
2018-10-07T08:50:50.667Z,33
2018-10-07T08:52:49.946Z,30
2018-10-07T08:54:50.143Z,48
2018-10-07T08:56:50.413Z,37
2018-10-07T08:58:49.720Z,35
2018-10-07T09:00:49.951Z,53
2018-10-07T09:02:50.058Z,34
2018-10-07T09:04:50.527Z,38
2018-10-07T09:06:49.889Z,50
2018-10-07T09:08:50.524Z,36
2018-10-07T09:10:50.072Z,45
2018-10-07T09:12:50.265Z,34
2018-10-07T09:14:50.429Z,27
2018-10-07T09:16:49.758Z,28
2018-10-07T09:18:49.962Z,28
2018-10-07T09:24:50.546Z,42
2018-10-07T09:26:50.356Z,40
2018-10-07T09:28:49.945Z,40
2018-10-07T09:30:50.084Z,37
2018-10-07T09:32:50.514Z,37
2018-10-07T09:34:50.305Z,28
2018-10-07T09:36:50.814Z,36
2018-10-07T09:38:50.555Z,42
2018-10-07T09:40:49.806Z,40
2018-10-07T09:42:49.986Z,42
2018-10-07T09:44:50.231Z,42
2018-10-07T09:46:50.409Z,43
2018-10-07T09:48:50.638Z,37
2018-10-07T09:50:49.839Z,33
2018-10-07T09:52:50.052Z,46
2018-10-07T09:54:50.246Z,34
2018-10-07T09:56:50.561Z,28
2018-10-07T09:58:49.763Z,36
2018-10-07T10:00:50.033Z,35
2018-10-07T10:02:50.213Z,44
2018-10-07T10:04:49.766Z,36
2018-10-07T10:06:50.120Z,40
2018-10-07T10:08:50.368Z,47
2018-10-07T10:10:50.621Z,33
2018-10-07T10:12:49.708Z,43
2018-10-07T10:14:49.914Z,39
2018-10-07T10:16:50.135Z,42
2018-10-07T10:18:50.338Z,35
2018-10-07T10:20:50.560Z,33
2018-10-07T10:22:49.806Z,35
2018-10-07T10:24:50.678Z,48
2018-10-07T10:26:49.954Z,26
2018-10-07T10:28:50.115Z,38
2018-10-07T10:30:50.321Z,38
2018-10-07T10:32:50.546Z,38
2018-10-07T10:34:50.390Z,32
2018-10-07T10:36:51.022Z,30
2018-10-07T10:38:50.465Z,32
2018-10-07T10:40:50.663Z,34
2018-10-07T10:42:49.852Z,29
2018-10-07T10:44:50.067Z,31
2018-10-07T10:46:50.348Z,25
2018-10-07T10:48:49.873Z,38
2018-10-07T10:50:50.076Z,33
2018-10-07T10:52:50.298Z,28
2018-10-07T10:54:50.421Z,33
2018-10-07T10:56:49.756Z,38
2018-10-07T10:58:49.937Z,38
2018-10-07T11:00:50.280Z,35
2018-10-07T11:02:49.791Z,34
2018-10-07T11:04:50.264Z,27
2018-10-07T11:06:50.515Z,35
2018-10-07T11:08:49.716Z,36
2018-10-07T11:10:49.880Z,31
2018-10-07T11:12:50.065Z,44
2018-10-07T11:14:50.297Z,44
2018-10-07T11:16:50.503Z,36
2018-10-07T11:18:50.002Z,36
2018-10-07T11:20:50.129Z,32
2018-10-07T11:22:50.291Z,50
2018-10-07T11:24:50.663Z,33
2018-10-07T11:26:49.962Z,33
2018-10-07T11:28:50.163Z,39
2018-10-07T11:30:50.311Z,31
2018-10-07T11:32:50.486Z,29
2018-10-07T11:34:50.286Z,35
2018-10-07T11:36:50.293Z,35
2018-10-07T11:38:50.476Z,29
2018-10-07T11:40:50.341Z,37
2018-10-07T11:42:49.760Z,36
2018-10-07T11:44:49.927Z,40
2018-10-07T11:46:50.261Z,28
2018-10-07T11:48:50.318Z,22
2018-10-07T11:50:50.598Z,37
2018-10-07T11:52:50.664Z,28
2018-10-07T11:54:49.898Z,24
2018-10-07T11:56:50.273Z,35
2018-10-07T11:58:50.518Z,24
2018-10-07T12:00:50.694Z,29
2018-10-07T12:02:50.481Z,26
2018-10-07T12:04:50.539Z,22
2018-10-07T12:06:49.941Z,3
2018-10-07T12:08:50.213Z,0
2018-10-07T12:10:50.393Z,0
2018-10-07T12:12:50.607Z,0
2018-10-07T12:14:49.800Z,0
2018-10-07T12:16:50.066Z,0
2018-10-07T12:18:50.216Z,0
2018-10-07T12:20:50.409Z,0
2018-10-07T12:22:50.590Z,0
2018-10-07T12:24:49.775Z,0
2018-10-07T12:26:50.046Z,0
2018-10-07T12:28:50.378Z,0
2018-10-07T12:30:49.735Z,0
2018-10-07T12:32:49.919Z,0
2018-10-07T12:34:50.468Z,0
2018-10-07T12:36:51.141Z,0
2018-10-07T12:38:49.849Z,0
2018-10-07T12:40:50.111Z,0
2018-10-07T12:42:50.734Z,0
2018-10-07T12:44:50.311Z,0
2018-10-07T12:46:50.545Z,0
2018-10-07T12:48:49.787Z,22
2018-10-07T12:50:49.955Z,33
2018-10-07T12:52:50.070Z,32
2018-10-07T12:54:50.225Z,30
2018-10-07T12:56:50.576Z,32
2018-10-07T12:58:49.761Z,30
2018-10-07T13:00:49.946Z,27
2018-10-07T13:02:50.141Z,30
2018-10-07T13:04:50.517Z,0
2018-10-07T13:06:49.872Z,0
2018-10-07T13:08:50.038Z,0
2018-10-07T13:10:50.187Z,0
2018-10-07T13:12:50.291Z,0
2018-10-07T13:14:50.530Z,0
2018-10-07T13:16:49.852Z,0
2018-10-07T13:18:49.947Z,0
2018-10-07T13:20:50.110Z,0
2018-10-07T13:22:50.341Z,0
2018-10-07T13:24:50.588Z,0
2018-10-07T13:26:49.887Z,0
2018-10-07T13:28:50.077Z,11
2018-10-07T13:30:50.254Z,26
2018-10-07T13:32:50.372Z,33
2018-10-07T13:34:49.876Z,32
2018-10-07T13:36:50.150Z,27
2018-10-07T13:38:50.293Z,27
2018-10-07T13:40:50.431Z,24
2018-10-07T13:42:50.617Z,28
2018-10-07T13:44:49.915Z,24
2018-10-07T13:46:50.198Z,32
2018-10-07T13:48:50.400Z,31
2018-10-07T13:50:50.641Z,20
2018-10-07T13:52:49.870Z,22
2018-10-07T13:54:49.986Z,33
2018-10-07T13:56:50.194Z,29
2018-10-07T13:58:50.424Z,27
2018-10-07T14:00:50.638Z,35
2018-10-07T14:02:49.829Z,30
2018-10-07T14:04:50.376Z,36
2018-10-07T14:06:49.718Z,5
2018-10-07T14:08:49.894Z,0
2018-10-07T14:10:50.088Z,8
2018-10-07T14:12:50.261Z,28
2018-10-07T14:14:50.446Z,33
2018-10-07T14:16:49.867Z,29
2018-10-07T14:18:50.021Z,29
2018-10-07T14:20:50.211Z,20
2018-10-07T14:22:50.409Z,10
2018-10-07T14:24:50.496Z,0
2018-10-07T14:26:49.885Z,11
2018-10-07T14:28:49.924Z,25
2018-10-07T14:30:50.151Z,23
2018-10-07T14:32:50.298Z,24
2018-10-07T14:34:49.783Z,32
2018-10-07T14:36:50.271Z,23
2018-10-07T14:38:50.411Z,27
2018-10-07T14:40:50.647Z,31
2018-10-07T14:42:49.808Z,22
2018-10-07T14:44:50.020Z,30
2018-10-07T14:46:50.305Z,21
2018-10-07T14:48:50.482Z,27
2018-10-07T14:50:49.706Z,21
2018-10-07T14:52:49.864Z,30
2018-10-07T14:54:50.087Z,22
2018-10-07T14:56:50.368Z,34
2018-10-07T14:58:50.529Z,32
2018-10-07T15:00:49.741Z,17
2018-10-07T15:02:49.865Z,28
2018-10-07T15:04:50.240Z,30
2018-10-07T15:06:50.506Z,29
2018-10-07T15:08:49.774Z,36
2018-10-07T15:10:49.957Z,29
2018-10-07T15:12:50.148Z,35
2018-10-07T15:14:50.318Z,39
2018-10-07T15:16:50.547Z,29
2018-10-07T15:18:49.697Z,38
2018-10-07T15:20:49.913Z,25
2018-10-07T15:22:50.118Z,28
2018-10-07T15:24:50.250Z,28
2018-10-07T15:26:50.567Z,28
2018-10-07T15:28:49.759Z,31
2018-10-07T15:30:49.865Z,26
2018-10-07T15:32:50.040Z,23
2018-10-07T15:34:50.472Z,25
2018-10-07T15:36:49.815Z,22
2018-10-07T15:38:49.996Z,27
2018-10-07T15:40:50.215Z,32
2018-10-07T15:42:50.457Z,35
2018-10-07T15:44:50.673Z,22
2018-10-07T15:46:50.080Z,23
2018-10-07T15:48:50.175Z,27
2018-10-07T15:50:50.310Z,32
2018-10-07T15:52:50.443Z,24
2018-10-07T15:54:50.689Z,34
2018-10-07T15:56:50.606Z,28
2018-10-07T15:58:50.135Z,28
2018-10-07T16:00:50.293Z,28
2018-10-07T16:02:50.408Z,37
2018-10-07T16:04:50.116Z,30
2018-10-07T16:06:50.309Z,31
2018-10-07T16:08:50.740Z,28
2018-10-07T16:10:50.123Z,28
2018-10-07T16:12:50.326Z,29
2018-10-07T16:14:50.540Z,30
2018-10-07T16:16:49.823Z,36
2018-10-07T16:18:50.123Z,32
2018-10-07T16:20:50.187Z,33
2018-10-07T16:22:50.336Z,31
2018-10-07T16:24:50.454Z,28
2018-10-07T16:26:49.848Z,34
2018-10-07T16:28:49.989Z,31
2018-10-07T16:30:50.169Z,22
2018-10-07T16:32:50.400Z,33
2018-10-07T16:34:49.794Z,27
2018-10-07T16:36:50.006Z,35
2018-10-07T16:38:50.133Z,24
2018-10-07T16:40:50.255Z,21
2018-10-07T16:42:50.522Z,33
2018-10-07T16:44:50.693Z,36
2018-10-07T16:46:50.108Z,29
2018-10-07T16:48:50.278Z,23
2018-10-07T16:50:50.515Z,30
2018-10-07T16:52:50.319Z,27
2018-10-07T16:54:49.995Z,27
2018-10-07T16:56:50.265Z,31
2018-10-07T16:58:50.381Z,28
2018-10-07T17:00:50.582Z,32
2018-10-07T17:02:49.710Z,28
2018-10-07T17:04:50.483Z,33
2018-10-07T17:06:49.732Z,25
2018-10-07T17:08:49.915Z,29
2018-10-07T17:10:50.075Z,28
2018-10-07T17:12:50.533Z,25
2018-10-07T17:14:50.156Z,28
2018-10-07T17:16:50.402Z,28
2018-10-07T17:18:50.577Z,35
2018-10-07T17:20:50.088Z,33
2018-10-07T17:22:50.479Z,25
2018-10-07T17:24:50.648Z,36
2018-10-07T17:26:50.003Z,33
2018-10-07T17:28:50.220Z,29
2018-10-07T17:30:50.382Z,40
2018-10-07T17:32:50.958Z,35
2018-10-07T17:34:49.839Z,27
2018-10-07T17:36:50.187Z,31
2018-10-07T17:38:50.410Z,31
2018-10-07T17:40:50.625Z,33
2018-10-07T17:42:50.191Z,19
2018-10-07T17:44:50.613Z,32
2018-10-07T17:46:49.946Z,31
2018-10-07T17:48:50.909Z,25
2018-10-07T17:50:49.888Z,22
2018-10-07T17:52:50.115Z,36
2018-10-07T17:54:50.533Z,22
2018-10-07T17:56:50.256Z,32
2018-10-07T17:58:50.403Z,29
2018-10-07T18:00:50.516Z,27
2018-10-07T18:02:50.339Z,20
2018-10-07T18:04:50.142Z,43
2018-10-07T18:06:50.452Z,30
2018-10-07T18:08:50.573Z,37
2018-10-07T18:10:49.741Z,20
2018-10-07T18:12:49.978Z,40
2018-10-07T18:14:50.280Z,37
2018-10-07T18:16:49.882Z,30
2018-10-07T18:18:50.065Z,27
2018-10-07T18:20:50.258Z,31
2018-10-07T18:22:50.453Z,32
2018-10-07T18:24:49.748Z,39
2018-10-07T18:26:50.000Z,33
2018-10-07T18:28:50.295Z,38
2018-10-07T18:30:49.775Z,29
2018-10-07T18:32:50.434Z,26
2018-10-07T18:34:50.332Z,30
2018-10-07T18:36:49.900Z,29
2018-10-07T18:38:50.261Z,28
2018-10-07T18:40:50.679Z,23
2018-10-07T18:42:50.263Z,24
2018-10-07T18:44:49.735Z,24
2018-10-07T18:46:50.381Z,31
2018-10-07T18:48:50.822Z,28
2018-10-07T18:50:50.163Z,32
2018-10-07T18:52:50.754Z,34
2018-10-07T18:54:50.323Z,25
2018-10-07T18:56:49.985Z,30
2018-10-07T18:58:50.496Z,32
2018-10-07T19:00:50.124Z,28
2018-10-07T19:02:51.501Z,34
2018-10-07T19:04:50.093Z,35
2018-10-07T19:06:50.672Z,28
2018-10-07T19:08:50.143Z,31
2018-10-07T19:10:50.872Z,45
2018-10-07T19:12:50.333Z,28
2018-10-07T19:14:50.023Z,31
2018-10-07T19:16:50.628Z,32
2018-10-07T19:18:50.171Z,21
2018-10-07T19:20:50.933Z,33
2018-10-07T19:22:50.098Z,27
2018-10-07T19:24:50.640Z,21
2018-10-07T19:26:50.208Z,34
2018-10-07T19:28:49.856Z,28
2018-10-07T19:30:50.420Z,35
2018-10-07T19:32:49.956Z,28
2018-10-07T19:34:49.931Z,27
2018-10-07T19:36:50.858Z,37
2018-10-07T19:38:50.286Z,33
2018-10-07T19:40:49.883Z,33
2018-10-07T19:42:50.865Z,29
2018-10-07T19:44:50.931Z,29
2018-10-07T19:46:50.155Z,35
2018-10-07T19:48:50.737Z,34
2018-10-07T19:50:50.322Z,34
2018-10-07T19:52:50.195Z,29
2018-10-07T19:54:50.063Z,37
2018-10-07T19:56:50.060Z,36
2018-10-07T19:58:50.521Z,35
2018-10-07T20:00:50.199Z,31
2018-10-07T20:02:49.722Z,23
2018-10-07T20:04:50.517Z,23
2018-10-07T20:06:50.267Z,38
2018-10-07T20:08:49.763Z,27
2018-10-07T20:10:50.209Z,34
2018-10-07T20:12:50.784Z,40
2018-10-07T20:14:50.237Z,32
2018-10-07T20:16:50.008Z,30
2018-10-07T20:18:50.580Z,38
2018-10-07T20:20:50.180Z,37
2018-10-07T20:22:50.601Z,21
2018-10-07T20:24:50.058Z,29
2018-10-07T20:26:50.531Z,31
2018-10-07T20:28:50.022Z,26
2018-10-07T20:30:50.447Z,48
2018-10-07T20:32:49.977Z,37
2018-10-07T20:34:49.994Z,37
2018-10-07T20:36:50.668Z,35
2018-10-07T20:38:50.393Z,24
2018-10-07T20:40:51.119Z,28
2018-10-07T20:42:49.875Z,33
2018-10-07T20:44:50.560Z,27
2018-10-07T20:46:50.291Z,37
2018-10-07T20:48:49.884Z,25
2018-10-07T20:50:50.136Z,31
2018-10-07T20:52:50.609Z,25
2018-10-07T20:54:49.876Z,33
2018-10-07T20:56:50.228Z,38
2018-10-07T20:58:50.492Z,48
2018-10-07T21:00:50.006Z,29
2018-10-07T21:02:50.921Z,31
2018-10-07T21:04:50.713Z,33
2018-10-07T21:06:50.436Z,31
2018-10-07T21:08:50.008Z,44
2018-10-07T21:10:50.359Z,25
2018-10-07T21:12:49.869Z,25
2018-10-07T21:14:50.322Z,33
2018-10-07T21:16:50.068Z,30
2018-10-07T21:18:50.678Z,36
2018-10-07T21:20:50.240Z,30
2018-10-07T21:22:49.770Z,33
2018-10-07T21:24:50.353Z,41
2018-10-07T21:26:49.924Z,31
2018-10-07T21:28:50.468Z,26
2018-10-07T21:30:50.080Z,38
2018-10-07T21:32:50.673Z,34
2018-10-07T21:34:50.313Z,35
2018-10-07T21:36:49.995Z,34
2018-10-07T21:38:50.605Z,39
2018-10-07T21:40:50.181Z,39
2018-10-07T21:42:50.709Z,29
2018-10-07T21:44:50.116Z,28
2018-10-07T21:46:50.674Z,38
2018-10-07T21:48:50.406Z,33
2018-10-07T21:50:49.920Z,31
2018-10-07T21:52:50.360Z,39
2018-10-07T21:54:49.841Z,27
2018-10-07T21:56:50.531Z,25
2018-10-07T21:58:49.984Z,37
2018-10-07T22:00:50.464Z,31
2018-10-07T22:02:49.938Z,34
2018-10-07T22:04:49.761Z,38
2018-10-07T22:06:50.376Z,28
2018-10-07T22:08:49.758Z,29
2018-10-07T22:10:50.188Z,32
2018-10-07T22:12:50.616Z,29
2018-10-07T22:14:50.191Z,31
2018-10-07T22:16:49.848Z,41
2018-10-07T22:18:50.281Z,41
2018-10-07T22:20:49.795Z,23
2018-10-07T22:22:50.255Z,29
2018-10-07T22:24:49.733Z,30
2018-10-07T22:26:50.338Z,34
2018-10-07T22:28:49.799Z,29
2018-10-07T22:30:50.288Z,31
2018-10-07T22:32:49.745Z,34
2018-10-07T22:34:50.455Z,26
2018-10-07T22:36:50.246Z,32
2018-10-07T22:38:49.751Z,29
2018-10-07T22:40:50.199Z,26
2018-10-07T22:42:50.700Z,26
2018-10-07T22:44:50.297Z,24
2018-10-07T22:46:49.935Z,33
2018-10-07T22:48:50.444Z,29
2018-10-07T22:50:49.947Z,33
2018-10-07T22:52:50.400Z,46
2018-10-07T22:54:49.904Z,30
2018-10-07T22:56:50.704Z,30
2018-10-07T22:58:50.286Z,42
2018-10-07T23:00:49.953Z,32
2018-10-07T23:02:50.462Z,29
2018-10-07T23:04:50.406Z,46
2018-10-07T23:06:49.933Z,31
2018-10-07T23:08:50.394Z,32
2018-10-07T23:10:50.031Z,39
2018-10-07T23:12:50.643Z,38
2018-10-07T23:14:50.177Z,41
2018-10-07T23:16:49.821Z,42
2018-10-07T23:18:50.320Z,31
2018-10-07T23:20:49.812Z,38
2018-10-07T23:22:50.347Z,44
2018-10-07T23:24:49.924Z,39
2018-10-07T23:26:50.493Z,31
2018-10-07T23:28:50.051Z,33
2018-10-07T23:30:50.506Z,40
2018-10-07T23:32:50.196Z,26
2018-10-07T23:34:50.145Z,47
2018-10-07T23:36:49.869Z,38
2018-10-07T23:38:50.443Z,40
2018-10-07T23:40:49.924Z,31
2018-10-07T23:42:50.374Z,27
2018-10-07T23:44:49.954Z,36
2018-10-07T23:46:50.665Z,43
2018-10-07T23:48:50.129Z,26
2018-10-07T23:50:50.679Z,37
2018-10-07T23:52:50.475Z,27
2018-10-07T23:54:50.013Z,42
2018-10-07T23:56:50.602Z,37
2018-10-07T23:58:50.163Z,35
